createdAt,value
2022-11-01T00:10:37.576Z,26.20
2022-11-01T00:21:04.919Z,27.60
2022-11-01T00:31:32.293Z,25.10
2022-11-01T00:41:59.709Z,26.50
2022-11-01T00:52:26.996Z,28.80
2022-11-01T01:02:54.397Z,29.40
2022-11-01T01:13:22.101Z,27.00
2022-11-01T01:23:51.452Z,24.70
2022-11-01T01:34:19.183Z,28.20
2022-11-01T01:45:11.991Z,27.80
2022-11-01T01:55:44.087Z,25.20
2022-11-01T02:06:13.837Z,22.90
2022-11-01T02:16:53.564Z,23.20
2022-11-01T02:27:28.800Z,16.70
2022-11-01T02:38:02.628Z,14.10
2022-11-01T02:48:30.392Z,15.30
2022-11-01T02:58:59.091Z,11.50
2022-11-01T03:09:26.869Z,12.90
2022-11-01T03:20:00.692Z,11.70
2022-11-01T03:30:30.628Z,12.10
2022-11-01T03:41:01.575Z,11.20
2022-11-01T03:51:28.953Z,9.60
2022-11-01T04:01:56.386Z,10.20
2022-11-01T04:12:23.827Z,7.90
2022-11-01T04:22:51.135Z,8.40
2022-11-01T04:33:18.551Z,8.20
2022-11-01T04:43:46.009Z,8.30
2022-11-01T04:54:13.419Z,7.00
2022-11-01T05:04:40.669Z,7.50
2022-11-01T05:15:10.683Z,8.20
2022-11-01T05:25:38.442Z,7.80
2022-11-01T05:36:06.381Z,7.00
2022-11-01T05:46:33.647Z,7.00
2022-11-01T05:57:00.972Z,7.00
2022-11-01T06:07:28.756Z,7.80
2022-11-01T06:17:59.872Z,7.90
2022-11-01T06:28:27.559Z,7.50
2022-11-01T06:38:54.896Z,7.90
2022-11-01T06:49:22.365Z,7.80
2022-11-01T06:59:49.756Z,6.60
2022-11-01T07:10:17.252Z,6.70
2022-11-01T07:20:44.598Z,7.50
2022-11-01T07:31:12.156Z,6.50
2022-11-01T07:41:39.679Z,7.20
2022-11-01T07:52:07.065Z,6.20
2022-11-01T08:02:34.998Z,5.80
2022-11-01T08:13:07.565Z,7.60
2022-11-01T08:23:34.865Z,6.80
2022-11-01T08:34:02.244Z,6.40
2022-11-01T08:44:29.769Z,5.60
2022-11-01T08:54:57.173Z,5.50
2022-11-01T09:05:24.637Z,5.30
2022-11-01T09:15:52.699Z,5.70
2022-11-01T09:26:20.171Z,5.90
2022-11-01T09:36:47.831Z,5.40
2022-11-01T09:47:20.566Z,5.40
2022-11-01T09:57:54.503Z,4.90
2022-11-01T10:08:37.062Z,6.10
2022-11-01T10:19:11.551Z,6.00
2022-11-01T10:29:47.453Z,5.40
2022-11-01T10:40:21.033Z,7.10
2022-11-01T10:50:49.181Z,6.10
2022-11-01T11:01:22.066Z,5.30
2022-11-01T11:11:50.988Z,8.30
2022-11-01T11:22:18.608Z,5.80
2022-11-01T11:32:50.568Z,6.60
2022-11-01T11:43:24.295Z,6.90
2022-11-01T11:54:22.412Z,6.20
2022-11-01T12:04:55.242Z,4.50
2022-11-01T12:15:31.061Z,5.40
2022-11-01T12:26:01.307Z,6.00
2022-11-01T12:36:32.781Z,5.00
2022-11-01T12:47:05.629Z,5.90
2022-11-01T12:57:34.925Z,6.60
2022-11-01T13:08:13.866Z,6.20
2022-11-01T13:18:48.977Z,6.80
2022-11-01T13:29:23.062Z,6.30
2022-11-01T13:40:04.721Z,7.10
2022-11-01T13:51:01.485Z,6.40
2022-11-01T14:01:36.500Z,7.10
2022-11-01T14:12:31.073Z,6.20
2022-11-01T14:22:59.816Z,6.10
2022-11-01T14:33:27.271Z,6.20
2022-11-01T14:54:43.393Z,7.60
2022-11-01T15:05:15.315Z,8.60
2022-11-01T15:15:42.745Z,8.90
2022-11-01T15:26:13.346Z,8.30
2022-11-01T15:36:41.788Z,8.60
2022-11-01T15:47:15.858Z,9.60
2022-11-01T15:57:47.005Z,10.80
2022-11-01T16:08:22.821Z,13.10
2022-11-01T16:18:50.363Z,13.30
2022-11-01T16:29:18.240Z,13.20
2022-11-01T16:39:47.052Z,17.20
2022-11-01T16:50:20.002Z,15.20
2022-11-01T17:00:54.702Z,14.60
2022-11-01T17:11:22.461Z,12.70
2022-11-01T17:21:50.518Z,11.30
2022-11-01T17:32:17.882Z,14.60
2022-11-01T17:42:45.226Z,15.60
2022-11-01T17:53:21.735Z,21.40
2022-11-01T18:03:49.437Z,10.70
2022-11-01T18:14:20.810Z,10.40
2022-11-01T18:24:52.825Z,14.20
2022-11-01T18:35:31.905Z,12.90
2022-11-01T18:56:51.720Z,15.70
2022-11-01T19:07:21.653Z,16.40
2022-11-01T19:17:53.160Z,13.30
2022-11-01T19:28:27.751Z,13.10
2022-11-01T19:38:55.703Z,15.50
2022-11-01T19:49:26.285Z,20.00
2022-11-01T19:59:53.889Z,23.30
2022-11-01T20:10:21.227Z,21.80
2022-11-01T20:20:48.544Z,19.70
2022-11-01T20:31:15.830Z,15.90
2022-11-01T20:41:43.176Z,16.30
2022-11-01T20:52:38.135Z,18.30
2022-11-01T21:02:58.989Z,18.80
2022-11-01T21:13:30.224Z,18.90
2022-11-01T21:23:58.581Z,17.30
2022-11-01T21:34:32.073Z,15.40
2022-11-01T21:44:59.980Z,17.80
2022-11-01T21:55:27.313Z,15.10
2022-11-01T22:05:55.084Z,16.40
2022-11-01T22:16:22.688Z,17.90
2022-11-01T22:26:50.013Z,20.50
2022-11-01T22:37:17.300Z,18.70
2022-11-01T22:47:46.134Z,17.70
2022-11-01T22:58:32.524Z,16.20
2022-11-01T23:09:05.583Z,17.00
2022-11-01T23:19:33.628Z,16.00
2022-11-01T23:30:02.704Z,16.00
2022-11-01T23:40:34.676Z,17.70
2022-11-01T23:51:02.152Z,18.90
